Time;durP1;ratioP1;P1;durP2;ratioP2;P2;SDS_P1;SDS_P2;PMS_P1;PMS_P2;Temp;Humidity;BMP_temperature;BMP_pressure;BME280_temperature;BME280_humidity;BME280_pressure;Samples;Min_cycle;Max_cycle;Signal;HPM_P1;HPM_P2
2022/10/08 00:01:53;;;;;;;0.10;0.10;;;;;;;9.72;100.00;96753.63;5043894;28;20873;-74
2022/10/08 00:04:38;;;;;;;0.10;0.10;;;;;;;9.71;100.00;96752.00;5044154;28;20149;-74
2022/10/08 00:07:24;;;;;;;0.10;0.10;;;;;;;9.63;100.00;96749.69;5041105;28;20547;-73
2022/10/08 00:10:10;;;;;;;0.13;0.10;;;;;;;9.55;100.00;96748.19;5046995;28;20101;-73
2022/10/08 00:12:56;;;;;;;0.10;0.10;;;;;;;9.60;100.00;96753.66;5044976;28;20049;-72
2022/10/08 00:15:42;;;;;;;0.10;0.10;;;;;;;9.57;100.00;96746.13;5045518;28;20048;-72
2022/10/08 00:18:28;;;;;;;0.10;0.10;;;;;;;9.48;100.00;96748.31;5043927;28;20047;-73
2022/10/08 00:21:27;;;;;;;0.10;0.10;;;;;;;9.48;100.00;96747.50;5044785;28;20063;-73
2022/10/08 00:24:17;;;;;;;0.10;0.10;;;;;;;9.43;100.00;96755.44;5046703;28;20204;-73
2022/10/08 00:27:03;;;;;;;0.00;0.00;;;;;;;9.38;100.00;96757.97;5047949;28;20053;-72
2022/10/08 00:29:51;;;;;;;0.20;0.10;;;;;;;9.36;100.00;96760.06;5035818;28;20120;-72
2022/10/08 00:32:36;;;;;;;0.10;0.10;;;;;;;9.26;100.00;96762.50;5047147;28;20246;-73
2022/10/08 00:35:22;;;;;;;0.10;0.10;;;;;;;9.21;100.00;96752.53;5048003;28;20559;-72
2022/10/08 00:38:09;;;;;;;0.10;0.10;;;;;;;9.19;100.00;96751.97;5050213;28;20040;-73
2022/10/08 00:40:55;;;;;;;0.10;0.10;;;;;;;9.07;100.00;96751.94;5047956;28;20045;-73
2022/10/08 00:43:44;;;;;;;0.10;0.10;;;;;;;8.97;100.00;96750.91;5047492;28;20467;-73
2022/10/08 00:46:44;;;;;;;0.10;0.10;;;;;;;8.87;100.00;96748.78;5049697;28;20131;-72
2022/10/08 00:49:30;;;;;;;0.10;0.10;;;;;;;8.79;100.00;96743.78;5047449;28;20040;-72
2022/10/08 00:52:18;;;;;;;0.10;0.10;;;;;;;8.74;100.00;96743.66;5031707;28;20437;-73
2022/10/08 00:55:06;;;;;;;0.10;0.10;;;;;;;8.69;100.00;96749.69;5050145;28;20041;-73
2022/10/08 00:57:54;;;;;;;0.10;0.10;;;;;;;8.65;100.00;96751.19;5048723;28;20165;-73
2022/10/08 01:00:40;;;;;;;0.10;0.10;;;;;;;8.62;100.00;96744.44;5046501;28;20381;-73
2022/10/08 01:03:26;;;;;;;0.10;0.10;;;;;;;8.58;100.00;96747.81;5044571;28;20125;-72
2022/10/08 01:06:27;;;;;;;0.10;0.10;;;;;;;8.54;100.00;96736.78;5047506;28;20136;-73
2022/10/08 01:09:16;;;;;;;0.10;0.10;;;;;;;8.52;100.00;96740.72;5044926;28;20288;-73
2022/10/08 01:12:12;;;;;;;0.03;0.03;;;;;;;8.49;100.00;96736.66;5048210;28;20044;-73
2022/10/08 01:15:19;;;;;;;0.10;0.10;;;;;;;8.43;100.00;96740.25;5049739;28;20206;-72
2022/10/08 01:18:22;;;;;;;0.10;0.10;;;;;;;8.40;100.00;96730.00;5049312;28;20055;-73
2022/10/08 01:21:14;;;;;;;0.10;0.10;;;;;;;8.37;100.00;96735.81;5034201;28;20186;-73
2022/10/08 01:25:31;;;;;;;0.10;0.10;;;;;;;8.36;100.00;96734.19;5033588;28;20089;-72
2022/10/08 01:27:42;;;;;;;0.00;0.00;;;;;;;8.27;100.00;96728.34;5022284;28;20036;-73
2022/10/08 01:30:34;;;;;;;0.10;0.10;;;;;;;8.31;100.00;96732.16;5028751;28;20045;-72
2022/10/08 01:33:25;;;;;;;0.20;0.10;;;;;;;8.33;100.00;96729.28;5029527;28;20405;-74
2022/10/08 01:36:12;;;;;;;;;;;;;;;8.30;100.00;96727.88;5018884;28;20392;-72
2022/10/08 01:39:02;;;;;;;0.10;0.10;;;;;;;8.22;100.00;96719.38;5030144;28;19921;-73
2022/10/08 01:41:52;;;;;;;0.10;0.10;;;;;;;8.26;100.00;96720.56;5031402;28;20128;-73
2022/10/08 01:44:49;;;;;;;0.10;0.10;;;;;;;8.26;100.00;96726.72;5032769;28;20253;-73
2022/10/08 01:47:38;;;;;;;0.10;0.10;;;;;;;8.26;100.00;96724.03;5028515;28;20278;-73
2022/10/08 01:50:32;;;;;;;0.10;0.10;;;;;;;8.22;100.00;96725.53;5029544;28;20734;-72
2022/10/08 01:53:20;;;;;;;0.10;0.10;;;;;;;8.23;100.00;96731.66;5029980;28;20613;-73
2022/10/08 01:56:10;;;;;;;0.10;0.10;;;;;;;8.19;100.00;96725.19;5028169;28;20068;-74
2022/10/08 01:59:05;;;;;;;0.10;0.10;;;;;;;8.14;100.00;96725.84;5027597;28;20293;-74
2022/10/08 02:02:13;;;;;;;0.10;0.10;;;;;;;8.07;100.00;96717.13;5028508;28;20835;-73
2022/10/08 02:04:59;;;;;;;0.10;0.10;;;;;;;8.03;100.00;96730.09;5029102;28;20046;-74
2022/10/08 02:07:44;;;;;;;0.10;0.10;;;;;;;7.94;100.00;96726.13;5029560;28;20269;-73
2022/10/08 02:10:31;;;;;;;0.10;0.10;;;;;;;7.96;100.00;96732.03;5027121;28;20099;-74
2022/10/08 02:13:17;;;;;;;0.10;0.10;;;;;;;7.97;100.00;96727.53;5028264;28;20117;-74
2022/10/08 02:16:10;;;;;;;0.10;0.10;;;;;;;7.93;100.00;96729.00;5016044;28;20513;-73
2022/10/08 02:18:57;;;;;;;0.10;0.10;;;;;;;7.93;100.00;96724.47;5030639;28;20127;-73
2022/10/08 02:21:44;;;;;;;0.10;0.10;;;;;;;7.96;100.00;96732.03;5027316;28;20052;-73
2022/10/08 02:24:39;;;;;;;0.10;0.10;;;;;;;7.83;100.00;96727.69;5020742;28;20123;-72
2022/10/08 02:27:32;;;;;;;0.10;0.10;;;;;;;7.84;100.00;96728.50;5029639;28;20323;-72
2022/10/08 02:30:19;;;;;;;0.10;0.10;;;;;;;7.81;100.00;96728.94;5029322;28;20066;-73
2022/10/08 02:33:12;;;;;;;0.13;0.13;;;;;;;7.83;100.00;96726.88;5029601;28;20099;-72
2022/10/08 02:36:00;;;;;;;0.10;0.10;;;;;;;7.79;100.00;96723.03;5029226;28;20045;-73
2022/10/08 02:38:51;;;;;;;0.10;0.10;;;;;;;7.74;100.00;96731.69;5030167;28;20075;-72
2022/10/08 02:41:48;;;;;;;0.10;0.10;;;;;;;7.70;100.00;96735.00;5028191;28;20040;-72
2022/10/08 02:44:40;;;;;;;0.10;0.10;;;;;;;7.62;100.00;96736.13;5028861;28;20037;-72
2022/10/08 02:47:31;;;;;;;0.10;0.10;;;;;;;7.58;100.00;96737.63;5028064;28;20135;-72
2022/10/08 02:50:22;;;;;;;0.20;0.20;;;;;;;7.53;100.00;96724.97;5029826;28;20348;-73
2022/10/08 02:53:13;;;;;;;0.10;0.10;;;;;;;7.54;100.00;96731.91;5027471;28;20056;-72
2022/10/08 02:56:13;;;;;;;0.13;0.10;;;;;;;7.66;100.00;96742.66;5028676;28;20381;-72
2022/10/08 02:59:00;;;;;;;0.10;0.10;;;;;;;7.75;100.00;96738.66;5031162;28;20346;-73
2022/10/08 03:01:56;;;;;;;0.10;0.10;;;;;;;7.92;100.00;96749.50;5027307;28;20041;-73
2022/10/08 03:05:05;;;;;;;0.32;0.20;;;;;;;8.00;100.00;96743.88;5029410;28;20052;-73
2022/10/08 03:07:53;;;;;;;0.10;0.10;;;;;;;7.87;100.00;96735.25;5030276;28;20098;-72
2022/10/08 03:10:41;;;;;;;0.10;0.10;;;;;;;7.79;100.00;96733.69;5026412;28;20073;-74
2022/10/08 03:13:29;;;;;;;0.10;0.10;;;;;;;7.86;100.00;96744.25;5022041;28;20041;-73
2022/10/08 03:16:20;;;;;;;0.10;0.10;;;;;;;7.87;100.00;96745.91;5014414;28;20398;-73
2022/10/08 03:19:10;;;;;;;0.15;0.15;;;;;;;8.00;100.00;96735.88;5028352;28;20238;-75
2022/10/08 03:21:56;;;;;;;0.28;0.20;;;;;;;8.02;100.00;96744.47;5027639;28;20149;-73
2022/10/08 03:24:42;;;;;;;0.30;0.20;;;;;;;7.79;100.00;96733.69;5027493;28;20071;-73
2022/10/08 03:27:28;;;;;;;0.10;0.10;;;;;;;7.62;100.00;96743.31;5027887;28;20175;-73
2022/10/08 03:30:14;;;;;;;0.10;0.10;;;;;;;7.49;100.00;96739.78;5009882;28;20505;-73
2022/10/08 03:33:01;;;;;;;0.10;0.10;;;;;;;7.48;100.00;96745.31;5028339;28;20656;-73
2022/10/08 03:35:47;;;;;;;0.25;0.17;;;;;;;7.38;100.00;96750.34;5029879;28;20044;-73
2022/10/08 03:38:33;;;;;;;0.10;0.10;;;;;;;7.36;100.00;96744.41;5012619;28;20049;-73
2022/10/08 03:41:19;;;;;;;0.10;0.10;;;;;;;7.29;100.00;96741.00;5025591;28;20042;-73
2022/10/08 03:44:09;;;;;;;0.10;0.10;;;;;;;7.34;100.00;96747.31;5028358;28;20236;-73
2022/10/08 03:46:55;;;;;;;0.28;0.10;;;;;;;7.32;100.00;96761.88;5026766;28;20532;-73
2022/10/08 03:49:41;;;;;;;0.10;0.10;;;;;;;7.26;100.00;96756.41;5029260;28;20504;-73
2022/10/08 03:52:28;;;;;;;0.10;0.10;;;;;;;7.25;100.00;96756.63;5026630;28;20071;-73
2022/10/08 03:55:14;;;;;;;0.10;0.10;;;;;;;7.22;100.00;96754.38;5027496;28;20577;-73
2022/10/08 03:58:00;;;;;;;0.10;0.10;;;;;;;7.18;100.00;96742.56;5029843;28;20075;-73
2022/10/08 04:00:57;;;;;;;0.20;0.20;;;;;;;7.21;100.00;96758.09;5029650;28;20520;-73
2022/10/08 04:03:46;;;;;;;0.10;0.10;;;;;;;7.15;100.00;96759.75;5033007;28;20056;-73
2022/10/08 04:06:32;;;;;;;0.10;0.10;;;;;;;7.11;100.00;96763.09;5033958;28;20128;-72
2022/10/08 04:09:18;;;;;;;0.20;0.20;;;;;;;7.14;100.00;96757.31;5031490;28;20071;-73
2022/10/08 04:12:03;;;;;;;0.10;0.10;;;;;;;7.19;100.00;96760.16;5031942;28;20041;-72
2022/10/08 04:14:49;;;;;;;0.20;0.20;;;;;;;7.13;100.00;96759.19;5033856;28;20056;-74
2022/10/08 04:17:35;;;;;;;0.10;0.10;;;;;;;7.12;100.00;96765.53;5033477;28;20065;-72
2022/10/08 04:20:23;;;;;;;0.10;0.10;;;;;;;7.09;100.00;96763.31;5037926;28;20122;-74
2022/10/08 04:23:10;;;;;;;0.20;0.20;;;;;;;7.04;100.00;96768.47;5047827;28;20912;-73
2022/10/08 04:25:55;;;;;;;0.10;0.10;;;;;;;6.98;100.00;96767.50;5048667;28;20051;-73
2022/10/08 04:28:43;;;;;;;0.10;0.10;;;;;;;6.97;100.00;96773.03;5031580;28;20251;-73
2022/10/08 04:31:28;;;;;;;0.10;0.10;;;;;;;6.85;100.00;96769.47;5046445;28;20373;-73
2022/10/08 04:34:14;;;;;;;0.10;0.10;;;;;;;6.81;100.00;96770.94;5049338;28;20040;-73
2022/10/08 04:37:00;;;;;;;0.10;0.10;;;;;;;6.80;100.00;96762.13;5050369;28;20595;-74
2022/10/08 04:39:46;;;;;;;0.10;0.10;;;;;;;6.82;100.00;96772.56;5048846;28;20040;-74
2022/10/08 04:42:32;;;;;;;0.10;0.10;;;;;;;6.77;100.00;96773.22;5047432;28;20083;-74
2022/10/08 04:45:18;;;;;;;0.10;0.10;;;;;;;6.87;100.00;96770.06;5047037;28;20037;-73
2022/10/08 04:48:03;;;;;;;0.10;0.10;;;;;;;7.09;100.00;96768.66;5048531;28;20110;-74
2022/10/08 04:50:57;;;;;;;0.10;0.10;;;;;;;7.36;100.00;96771.84;5048635;28;20134;-74
2022/10/08 04:53:44;;;;;;;0.15;0.15;;;;;;;7.48;100.00;96774.63;5049642;28;20036;-75
2022/10/08 04:56:33;;;;;;;0.10;0.10;;;;;;;7.67;100.00;96772.75;5045952;28;20037;-74
2022/10/08 04:59:19;;;;;;;0.10;0.10;;;;;;;7.76;100.00;96772.25;5047964;28;20049;-75
2022/10/08 05:02:05;;;;;;;0.20;0.10;;;;;;;7.77;100.00;96768.53;5047297;28;20049;-73
2022/10/08 05:04:53;;;;;;;0.10;0.10;;;;;;;7.90;100.00;96761.44;5048393;28;20045;-73
2022/10/08 05:07:38;;;;;;;0.35;0.20;;;;;;;7.88;100.00;96761.66;5048053;28;20049;-74
2022/10/08 05:10:24;;;;;;;0.10;0.10;;;;;;;8.08;100.00;96767.53;5047597;28;20052;-74
2022/10/08 05:13:10;;;;;;;0.10;0.10;;;;;;;8.20;100.00;96766.78;5045127;28;20033;-73
2022/10/08 05:16:01;;;;;;;0.10;0.10;;;;;;;8.26;100.00;96773.91;5049431;28;20052;-74
2022/10/08 05:18:51;;;;;;;0.10;0.10;;;;;;;8.20;100.00;96766.78;5047556;28;20071;-73
2022/10/08 05:21:36;;;;;;;0.38;0.20;;;;;;;8.30;100.00;96772.38;5025673;28;20556;-74
2022/10/08 05:24:22;;;;;;;0.10;0.10;;;;;;;8.34;100.00;96763.72;5028673;28;20372;-75
2022/10/08 05:27:08;;;;;;;0.10;0.10;;;;;;;8.19;100.00;96752.66;5026941;28;20041;-73
2022/10/08 05:29:54;;;;;;;0.10;0.10;;;;;;;8.25;100.00;96765.09;5026248;28;20132;-73
2022/10/08 05:32:40;;;;;;;0.10;0.10;;;;;;;8.22;100.00;96762.03;5026620;28;20433;-74
2022/10/08 05:35:25;;;;;;;0.10;0.10;;;;;;;8.09;100.00;96769.19;5028383;28;20045;-74
2022/10/08 05:38:11;;;;;;;0.10;0.10;;;;;;;7.98;100.00;96763.78;5028256;28;20602;-72
2022/10/08 05:41:30;;;;;;;0.10;0.10;;;;;;;8.03;100.00;96772.75;5029244;28;20055;-72
2022/10/08 05:44:16;;;;;;;0.10;0.10;;;;;;;8.19;100.00;96768.66;4990203;28;20128;-72
2022/10/08 05:47:03;;;;;;;0.10;0.10;;;;;;;8.26;100.00;96776.56;5031465;28;20435;-72
2022/10/08 05:49:48;;;;;;;0.10;0.10;;;;;;;8.25;100.00;96774.91;5014567;28;20418;-71
2022/10/08 05:52:34;;;;;;;0.10;0.10;;;;;;;8.23;100.00;96780.47;5025402;28;20067;-71
2022/10/08 05:55:20;;;;;;;0.10;0.10;;;;;;;8.21;100.00;96785.22;5027279;28;20037;-72
2022/10/08 05:58:06;;;;;;;0.10;0.10;;;;;;;8.13;100.00;96776.72;5029311;28;20051;-72
2022/10/08 06:01:00;;;;;;;0.10;0.10;;;;;;;8.00;100.00;96786.50;5013404;28;20076;-72
2022/10/08 06:03:50;;;;;;;0.10;0.10;;;;;;;8.05;100.00;96788.50;5026211;28;20037;-71
2022/10/08 06:06:38;;;;;;;0.10;0.10;;;;;;;8.11;100.00;96787.63;5027318;28;20142;-71
2022/10/08 06:09:24;;;;;;;0.10;0.10;;;;;;;8.38;100.00;96790.75;5025904;28;20575;-71
2022/10/08 06:12:11;;;;;;;0.13;0.10;;;;;;;8.53;100.00;96793.84;5027968;28;20079;-75
2022/10/08 06:14:57;;;;;;;0.10;0.10;;;;;;;8.63;100.00;96794.09;5027469;28;20323;-72
2022/10/08 06:17:43;;;;;;;0.20;0.10;;;;;;;8.69;100.00;96792.38;5008593;28;20040;-71
2022/10/08 06:20:29;;;;;;;0.10;0.10;;;;;;;8.67;100.00;96807.81;5024969;28;20053;-72
2022/10/08 06:23:14;;;;;;;0.10;0.10;;;;;;;8.68;100.00;96798.75;5017931;28;20377;-72
2022/10/08 06:26:03;;;;;;;0.10;0.10;;;;;;;8.83;100.00;96809.81;5032097;28;20447;-71
2022/10/08 06:28:48;;;;;;;0.10;0.10;;;;;;;8.94;100.00;96803.66;5033523;28;20067;-71
2022/10/08 06:31:35;;;;;;;0.10;0.10;;;;;;;8.84;100.00;96808.75;5022891;28;20547;-71
2022/10/08 06:34:21;;;;;;;0.10;0.10;;;;;;;9.08;100.00;96808.81;5032122;28;20592;-72
2022/10/08 06:37:07;;;;;;;0.10;0.10;;;;;;;9.17;100.00;96810.09;5029395;28;20037;-73
2022/10/08 06:39:52;;;;;;;0.10;0.10;;;;;;;9.19;100.00;96808.03;5030706;28;20090;-73
2022/10/08 06:42:38;;;;;;;0.15;0.13;;;;;;;9.08;100.00;96822.16;5028342;28;20478;-72
2022/10/08 06:45:25;;;;;;;0.10;0.10;;;;;;;9.07;100.00;96810.66;5013593;28;20060;-71
2022/10/08 06:48:12;;;;;;;0.10;0.10;;;;;;;9.18;100.00;96822.41;5031810;28;20048;-72
2022/10/08 06:51:00;;;;;;;0.10;0.10;;;;;;;9.43;100.00;96824.88;5028048;28;20068;-72
2022/10/08 06:53:53;;;;;;;0.20;0.20;;;;;;;9.71;100.00;96830.31;5032686;28;20329;-71
2022/10/08 06:56:39;;;;;;;0.10;0.10;;;;;;;9.69;100.00;96824.41;5029282;28;20325;-72
2022/10/08 06:59:24;;;;;;;0.10;0.10;;;;;;;9.55;100.00;96828.34;5029366;28;20072;-72
2022/10/08 07:02:10;;;;;;;0.20;0.20;;;;;;;9.21;100.00;96840.66;5028561;28;20049;-71
2022/10/08 07:04:56;;;;;;;0.10;0.10;;;;;;;9.07;100.00;96847.22;5030404;28;20071;-72
2022/10/08 07:07:42;;;;;;;0.10;0.10;;;;;;;9.15;100.00;96847.72;5030414;28;20746;-71
2022/10/08 07:10:28;;;;;;;0.20;0.10;;;;;;;9.30;100.00;96847.28;5027138;28;20140;-72
2022/10/08 07:13:14;;;;;;;0.13;0.13;;;;;;;9.31;100.00;96856.09;5028257;28;20190;-74
2022/10/08 07:16:05;;;;;;;0.10;0.10;;;;;;;9.51;100.00;96861.94;5030220;28;20033;-73
2022/10/08 07:18:53;;;;;;;0.10;0.10;;;;;;;9.47;100.00;96858.06;5031549;28;20036;-72
2022/10/08 07:21:39;;;;;;;0.10;0.10;;;;;;;9.45;100.00;96866.31;5026957;28;20044;-73
2022/10/08 07:24:25;;;;;;;0.10;0.10;;;;;;;9.39;100.00;96871.78;5031443;28;20064;-72
2022/10/08 07:27:11;;;;;;;0.10;0.10;;;;;;;9.40;100.00;96878.75;5027898;28;20041;-74
2022/10/08 07:29:57;;;;;;;0.10;0.10;;;;;;;9.53;100.00;96872.38;5031638;28;20051;-73
2022/10/08 07:32:42;;;;;;;0.10;0.10;;;;;;;9.54;100.00;96890.03;5029121;28;20048;-73
2022/10/08 07:35:28;;;;;;;0.10;0.10;;;;;;;9.66;100.00;96885.53;5029318;28;20308;-73
2022/10/08 07:38:17;;;;;;;0.10;0.10;;;;;;;9.41;100.00;96894.53;5029693;28;20072;-73
2022/10/08 07:41:03;;;;;;;0.10;0.10;;;;;;;9.49;100.00;96896.88;5028970;28;20040;-74
2022/10/08 07:43:51;;;;;;;0.10;0.10;;;;;;;9.66;100.00;96897.03;5005055;28;20037;-73
2022/10/08 07:46:42;;;;;;;0.25;0.20;;;;;;;9.70;100.00;96897.34;5026558;28;20270;-74
2022/10/08 07:49:28;;;;;;;0.20;0.20;;;;;;;9.70;100.00;96900.84;5031342;28;20036;-74
2022/10/08 07:52:13;;;;;;;0.15;0.10;;;;;;;9.72;100.00;96911.28;5016167;28;20344;-73
2022/10/08 07:54:59;;;;;;;0.10;0.10;;;;;;;9.74;100.00;96914.56;5031377;28;20420;-73
2022/10/08 07:57:45;;;;;;;0.10;0.10;;;;;;;9.77;100.00;96917.56;5024843;28;20041;-74
2022/10/08 08:00:31;;;;;;;0.10;0.10;;;;;;;9.85;100.00;96926.28;5028649;28;20045;-73
2022/10/08 08:03:17;;;;;;;0.10;0.10;;;;;;;9.93;100.00;96920.59;5031079;28;20033;-73
2022/10/08 08:06:05;;;;;;;0.10;0.10;;;;;;;9.98;100.00;96913.50;5028702;28;20063;-74
2022/10/08 08:08:52;;;;;;;0.10;0.10;;;;;;;9.93;100.00;96923.28;5031572;28;20075;-73
2022/10/08 08:11:39;;;;;;;0.10;0.10;;;;;;;9.94;100.00;96922.22;5030494;28;20047;-73
2022/10/08 08:14:25;;;;;;;0.10;0.10;;;;;;;9.94;100.00;96927.56;5030422;28;20052;-74
2022/10/08 08:17:10;;;;;;;0.10;0.10;;;;;;;9.94;100.00;96931.06;5027991;28;20048;-74
2022/10/08 08:19:56;;;;;;;0.17;0.17;;;;;;;9.95;100.00;96934.53;5033339;28;20126;-74
2022/10/08 08:22:42;;;;;;;0.10;0.10;;;;;;;9.94;100.00;96939.06;5033657;28;20050;-73
2022/10/08 08:25:28;;;;;;;0.10;0.10;;;;;;;9.96;100.00;96938.84;5044477;28;20528;-73
2022/10/08 08:28:16;;;;;;;0.10;0.10;;;;;;;9.96;100.00;96939.69;5028814;28;20063;-73
2022/10/08 08:31:18;;;;;;;0.13;0.13;;;;;;;9.97;100.00;96948.50;5041838;28;20044;-73
2022/10/08 08:34:06;;;;;;;;;;;;;;;10.18;100.00;96955.91;5045830;28;20037;-73
2022/10/08 08:36:52;;;;;;;0.10;0.10;;;;;;;10.32;100.00;96957.34;5033475;28;19916;-74
2022/10/08 08:39:38;;;;;;;0.10;0.10;;;;;;;10.40;100.00;96952.69;5045238;28;20072;-74
2022/10/08 08:42:33;;;;;;;0.10;0.10;;;;;;;10.48;100.00;96957.66;5045004;28;20071;-74
2022/10/08 08:45:26;;;;;;;0.10;0.10;;;;;;;10.30;100.00;96961.31;5043865;28;20072;-74
2022/10/08 08:48:22;;;;;;;0.10;0.10;;;;;;;10.24;100.00;96965.72;5012231;28;20084;-72
2022/10/08 08:51:09;;;;;;;0.10;0.10;;;;;;;10.04;100.00;96978.63;5044085;28;20687;-72
2022/10/08 08:53:56;;;;;;;0.10;0.10;;;;;;;10.32;100.00;96968.03;5047067;28;20234;-73
2022/10/08 08:56:44;;;;;;;0.10;0.10;;;;;;;10.35;100.00;96963.25;5051322;28;20315;-73
2022/10/08 08:59:36;;;;;;;0.10;0.10;;;;;;;10.16;100.00;96984.75;5050841;28;20539;-73
2022/10/08 09:02:33;;;;;;;0.10;0.10;;;;;;;10.48;100.00;96981.75;5035130;28;20052;-74
2022/10/08 09:05:20;;;;;;;0.10;0.10;;;;;;;10.26;100.00;96987.69;5046395;28;20397;-73
2022/10/08 09:08:15;;;;;;;0.10;0.10;;;;;;;10.38;100.00;96989.56;5049017;28;20040;-74
2022/10/08 09:11:03;;;;;;;0.10;0.10;;;;;;;10.46;100.00;96987.34;5050676;28;20156;-74
2022/10/08 09:13:59;;;;;;;0.10;0.10;;;;;;;10.52;100.00;96986.41;5052983;28;20075;-72
2022/10/08 09:16:45;;;;;;;0.10;0.10;;;;;;;10.62;100.00;96988.47;5046954;28;20067;-73
2022/10/08 09:19:31;;;;;;;0.10;0.10;;;;;;;10.63;100.00;96989.28;5048712;28;20503;-72
2022/10/08 09:22:21;;;;;;;0.10;0.10;;;;;;;10.66;100.00;97005.72;5050677;28;20583;-72
2022/10/08 09:25:19;;;;;;;0.10;0.10;;;;;;;10.75;100.00;97003.47;5050193;28;20044;-72
2022/10/08 09:28:05;;;;;;;0.10;0.10;;;;;;;10.71;100.00;97019.19;5050434;28;20029;-72
2022/10/08 09:30:51;;;;;;;0.15;0.15;;;;;;;10.73;100.00;97011.72;5040881;28;20044;-72
2022/10/08 09:33:38;;;;;;;0.10;0.10;;;;;;;10.66;100.00;97019.09;5049647;28;20508;-72
2022/10/08 09:36:32;;;;;;;0.10;0.10;;;;;;;10.54;100.00;97026.31;5034515;28;20119;-72
2022/10/08 09:39:24;;;;;;;0.10;0.10;;;;;;;10.70;100.00;97030.94;5050117;28;20037;-73
2022/10/08 09:42:12;;;;;;;;;;;;;;;10.60;100.00;97046.78;5049203;28;20038;-73
2022/10/08 09:45:02;;;;;;;0.17;0.17;;;;;;;10.65;100.00;97032.69;5049889;28;19948;-73
2022/10/08 09:48:20;;;;;;;0.10;0.10;;;;;;;10.50;100.00;97038.50;5042805;28;20036;-73
2022/10/08 09:51:15;;;;;;;0.10;0.10;;;;;;;10.69;100.00;97036.53;5048054;28;20040;-73
2022/10/08 09:54:01;;;;;;;0.10;0.10;;;;;;;10.81;100.00;97042.66;5050145;28;20033;-73
2022/10/08 09:56:57;;;;;;;0.10;0.10;;;;;;;10.99;100.00;97047.88;5044727;28;20032;-73
2022/10/08 09:59:53;;;;;;;0.10;0.10;;;;;;;11.79;100.00;97049.66;5049196;28;20128;-72
2022/10/08 10:02:39;;;;;;;0.10;0.10;;;;;;;12.41;100.00;97044.28;5020467;28;20043;-73
2022/10/08 10:05:28;;;;;;;0.15;0.10;;;;;;;13.48;100.00;97040.31;5044298;28;20139;-74
2022/10/08 10:08:42;;;;;;;0.10;0.10;;;;;;;13.53;100.00;97045.72;5048446;28;20040;-73
2022/10/08 10:11:46;;;;;;;0.10;0.10;;;;;;;13.20;100.00;97043.19;5046326;28;20549;-73
2022/10/08 10:14:43;;;;;;;0.10;0.10;;;;;;;14.41;100.00;97037.38;5048129;28;20523;-73
2022/10/08 10:17:57;;;;;;;0.20;0.10;;;;;;;13.79;100.00;97046.00;5049849;28;20048;-73
2022/10/08 10:21:06;;;;;;;0.10;0.10;;;;;;;13.17;100.00;97041.00;5036063;28;20470;-73
2022/10/08 10:24:07;;;;;;;0.10;0.10;;;;;;;13.54;100.00;97038.47;5027465;28;20099;-72
2022/10/08 10:26:59;;;;;;;0.10;0.10;;;;;;;13.26;100.00;97043.03;5024193;28;20429;-73
2022/10/08 10:30:01;;;;;;;0.10;0.10;;;;;;;12.97;100.00;97034.28;5027052;28;20237;-73
2022/10/08 10:33:00;;;;;;;0.10;0.10;;;;;;;12.79;100.00;97058.78;5026913;28;20036;-73
2022/10/08 10:35:57;;;;;;;0.10;0.10;;;;;;;12.52;100.00;97059.47;5027481;28;20064;-72
2022/10/08 10:39:20;;;;;;;0.10;0.10;;;;;;;12.37;100.00;97058.41;4676671;28;10000380;-72
2022/10/08 10:42:23;;;;;;;0.10;0.10;;;;;;;12.36;100.00;97065.66;5003705;28;20511;-73
2022/10/08 10:45:23;;;;;;;0.20;0.20;;;;;;;13.49;100.00;97068.81;5026874;28;20607;-73
2022/10/08 10:48:12;;;;;;;0.20;0.20;;;;;;;17.63;100.00;97058.25;5022916;28;20455;-73
2022/10/08 10:51:08;;;;;;;0.20;0.20;;;;;;;20.69;92.35;97047.53;5013194;28;20048;-73
2022/10/08 10:54:21;;;;;;;0.20;0.20;;;;;;;25.18;62.11;97031.88;5029051;28;20494;-74
2022/10/08 10:57:42;;;;;;;0.20;0.20;;;;;;;27.42;38.70;97025.59;4680816;28;10000179;-71
2022/10/08 11:00:37;;;;;;;0.20;0.20;;;;;;;29.35;37.56;97013.41;5008036;28;20037;-72
2022/10/08 11:03:41;;;;;;;0.20;0.20;;;;;;;30.58;31.87;97020.41;5028893;28;20091;-72
2022/10/08 11:06:36;;;;;;;0.10;0.10;;;;;;;26.48;34.85;97023.59;5025370;28;20056;-71
2022/10/08 11:09:57;;;;;;;0.05;0.05;;;;;;;25.70;34.45;97017.88;5028781;28;20124;-72
2022/10/08 11:12:42;;;;;;;0.10;0.10;;;;;;;27.94;34.11;97009.19;4980397;28;20041;-74
2022/10/08 11:15:49;;;;;;;0.17;0.17;;;;;;;27.94;32.00;97000.94;5014139;28;20128;-74
2022/10/08 11:18:53;;;;;;;0.13;0.13;;;;;;;28.00;32.25;96999.53;5030028;28;20137;-74
2022/10/08 11:22:01;;;;;;;0.00;0.00;;;;;;;24.95;37.28;96998.44;5028412;28;20212;-74
2022/10/08 11:24:54;;;;;;;0.20;0.20;;;;;;;26.73;35.74;97001.69;5025342;28;20041;-75
2022/10/08 11:28:06;;;;;;;0.10;0.10;;;;;;;28.69;33.74;96993.97;5028620;28;20124;-74
2022/10/08 11:30:58;;;;;;;0.10;0.10;;;;;;;30.54;30.18;96995.50;5012728;28;20124;-75
2022/10/08 11:33:45;;;;;;;0.10;0.10;;;;;;;28.97;28.31;97019.53;5028367;28;20041;-75
2022/10/08 11:36:39;;;;;;;0.00;0.00;;;;;;;27.62;29.89;97010.13;5023170;28;20505;-74
2022/10/08 11:40:01;;;;;;;0.00;0.00;;;;;;;23.76;36.02;97018.22;5023316;28;20549;-74
2022/10/08 11:42:49;;;;;;;0.08;0.08;;;;;;;20.81;49.34;97023.38;5027366;28;20048;-75
2022/10/08 11:45:39;;;;;;;0.00;0.00;;;;;;;19.35;63.41;97025.34;5027089;28;20063;-74
2022/10/08 11:48:31;;;;;;;0.00;0.00;;;;;;;18.16;74.77;97029.50;5026493;28;20072;-74
2022/10/08 11:51:17;;;;;;;0.10;0.10;;;;;;;18.38;66.37;97024.44;5024639;28;20136;-74
2022/10/08 11:54:13;;;;;;;0.10;0.10;;;;;;;19.01;53.16;97023.56;5024099;28;20041;-74
2022/10/08 11:57:34;;;;;;;0.20;0.20;;;;;;;22.22;42.20;97015.25;5009502;28;20041;-74
2022/10/08 12:00:31;;;;;;;0.10;0.10;;;;;;;26.82;29.80;97005.16;5025118;28;20586;-75
2022/10/08 12:03:26;;;;;;;0.10;0.10;;;;;;;29.11;28.53;97006.13;5026851;28;20048;-74
2022/10/08 12:06:28;;;;;;;0.10;0.10;;;;;;;30.94;25.42;97003.38;5021816;28;20044;-74
2022/10/08 12:09:23;;;;;;;0.10;0.10;;;;;;;31.38;24.10;97002.97;4996287;28;20429;-75
2022/10/08 12:12:12;;;;;;;0.10;0.10;;;;;;;32.01;24.03;96995.97;5007218;28;20060;-75
2022/10/08 12:14:58;;;;;;;0.10;0.10;;;;;;;30.12;24.77;97001.00;5013952;28;20591;-75
2022/10/08 12:17:54;;;;;;;0.10;0.10;;;;;;;30.43;24.42;97016.59;5010291;28;20045;-75
2022/10/08 12:20:41;;;;;;;0.10;0.10;;;;;;;27.23;28.91;97009.66;5002087;28;20427;-75
2022/10/08 12:23:33;;;;;;;0.10;0.10;;;;;;;24.28;32.76;97013.56;5043213;28;20037;-75
2022/10/08 12:26:18;;;;;;;0.00;0.00;;;;;;;23.19;35.76;97013.56;5048287;28;20071;-76
2022/10/08 12:29:47;;;;;;;0.20;0.20;;;;;;;28.03;28.83;97007.09;5039471;28;20067;-76
2022/10/08 12:32:42;;;;;;;0.00;0.00;;;;;;;27.38;29.04;97005.44;5044442;28;20048;-75
2022/10/08 12:35:32;;;;;;;0.00;0.00;;;;;;;23.86;35.11;97012.41;5042646;28;20528;-73
2022/10/08 12:38:49;;;;;;;0.10;0.10;;;;;;;21.05;42.53;97015.03;5047223;28;20040;-75
2022/10/08 12:42:05;;;;;;;0.00;0.00;;;;;;;17.88;69.50;97022.94;5044654;28;20083;-72
2022/10/08 12:45:12;;;;;;;0.10;0.00;;;;;;;17.16;81.05;97027.09;5046291;28;20481;-75
2022/10/08 12:48:19;;;;;;;0.10;0.10;;;;;;;17.25;81.07;97022.72;5048198;28;20095;-74
2022/10/08 12:51:17;;;;;;;0.00;0.00;;;;;;;17.08;82.93;97033.06;5046355;28;20132;-75
2022/10/08 12:54:15;;;;;;;0.00;0.00;;;;;;;16.62;86.04;97036.66;5047368;28;20097;-72
2022/10/08 12:57:08;;;;;;;0.10;0.10;;;;;;;18.03;79.96;97038.25;5049758;28;20044;-74
2022/10/08 12:59:58;;;;;;;0.20;0.20;;;;;;;20.61;58.59;97031.91;5047019;28;20060;-74
2022/10/08 13:03:11;;;;;;;0.20;0.20;;;;;;;24.41;42.09;97028.19;5022118;28;20558;-74
2022/10/08 13:05:57;;;;;;;0.00;0.00;;;;;;;24.67;39.77;97019.94;5046963;28;20032;-74
2022/10/08 13:08:43;;;;;;;0.00;0.00;;;;;;;22.11;46.87;97022.06;5049321;28;20503;-74
2022/10/08 13:11:29;;;;;;;0.10;0.10;;;;;;;21.62;49.51;97029.94;5044558;28;20037;-74
2022/10/08 13:14:28;;;;;;;0.10;0.10;;;;;;;23.07;45.70;97025.06;5047729;28;20326;-75
2022/10/08 13:17:28;;;;;;;0.10;0.10;;;;;;;24.84;38.47;97036.31;5046566;28;20125;-74
2022/10/08 13:20:17;;;;;;;0.10;0.10;;;;;;;27.40;33.99;97028.69;5042499;28;20076;-76
2022/10/08 13:23:23;;;;;;;0.10;0.10;;;;;;;30.12;29.85;97023.88;5011173;28;20650;-76
2022/10/08 13:26:44;;;;;;;0.10;0.10;;;;;;;30.97;26.67;97026.69;5025498;28;20285;-75